Time;durP1;ratioP1;P1;durP2;ratioP2;P2;SDS_P1;SDS_P2;PMS_P1;PMS_P2;Temp;Humidity;BMP_temperature;BMP_pressure;BME280_temperature;BME280_humidity;BME280_pressure;Samples;Min_cycle;Max_cycle;Signal;HPM_P1;HPM_P2
2023/09/02 00:00:16;;;;;;;3.73;2.20;;;;;;;19.17;99.51;100719.88;4937087;28;20222;-77
2023/09/02 00:03:04;;;;;;;5.27;2.50;;;;;;;19.13;99.42;100730.16;4904954;28;20277;-77
2023/09/02 00:05:45;;;;;;;3.73;1.70;;;;;;;19.15;99.25;100721.91;4945846;28;20211;-76
2023/09/02 00:08:17;;;;;;;9.33;2.20;;;;;;;19.14;99.19;100723.78;4941889;28;20208;-77
2023/09/02 00:11:13;;;;;;;5.30;1.93;;;;;;;19.11;99.18;100724.16;4944967;28;20271;-77
2023/09/02 00:23:27;;;;;;;4.10;1.90;;;;;;;19.08;99.14;100716.50;4940323;28;20336;-77
2023/09/02 00:26:15;;;;;;;8.53;2.40;;;;;;;19.06;99.41;100715.88;4943127;28;20219;-77
2023/09/02 00:28:44;;;;;;;5.00;1.57;;;;;;;19.07;98.42;100714.00;4945798;28;20667;-77
2023/09/02 00:38:53;;;;;;;4.07;1.50;;;;;;;19.02;98.55;100713.75;4894511;29;20250;-77
2023/09/02 00:41:36;;;;;;;2.80;1.60;;;;;;;19.02;97.78;100713.75;4930110;28;20806;-76
2023/09/02 00:44:23;;;;;;;4.40;1.50;;;;;;;18.95;98.08;100713.72;4933198;29;20263;-77
2023/09/02 00:47:04;;;;;;;5.27;1.57;;;;;;;18.88;98.75;100702.09;4944908;28;20816;-77
2023/09/02 00:49:41;;;;;;;5.77;2.00;;;;;;;18.71;100.00;100716.84;4942286;28;20212;-77
2023/09/02 00:52:18;;;;;;;4.33;1.73;;;;;;;18.64;100.00;100721.34;4944267;28;20207;-76
2023/09/02 00:54:46;;;;;;;8.07;2.00;;;;;;;18.54;100.00;100712.75;4942429;28;20677;-76
2023/09/02 00:57:22;;;;;;;6.73;1.77;;;;;;;18.52;100.00;100720.19;4941898;29;20311;-77
2023/09/02 00:59:51;;;;;;;5.47;1.77;;;;;;;18.56;100.00;100718.78;4942384;28;20688;-77
2023/09/02 01:02:21;;;;;;;3.97;1.63;;;;;;;18.67;100.00;100726.31;4944935;28;20282;-77
2023/09/02 01:04:49;;;;;;;7.57;2.20;;;;;;;18.73;100.00;100730.94;4942221;28;20531;-77
2023/09/02 01:07:20;;;;;;;4.80;2.57;;;;;;;18.72;100.00;100730.09;4944191;28;20212;-76
2023/09/02 01:09:51;;;;;;;8.47;1.97;;;;;;;18.72;99.58;100723.91;4942959;28;20262;-77
2023/09/02 01:12:22;;;;;;;5.60;2.10;;;;;;;18.73;98.32;100736.31;4946103;29;20211;-77
2023/09/02 01:14:50;;;;;;;4.80;1.70;;;;;;;18.72;97.69;100737.31;4942441;28;20212;-77
2023/09/02 01:17:21;;;;;;;3.07;1.53;;;;;;;18.77;97.02;100737.56;4941043;28;20264;-77
2023/09/02 01:19:52;;;;;;;4.27;1.57;;;;;;;18.74;96.38;100737.94;4944171;28;20204;-77
2023/09/02 01:22:54;;;;;;;6.47;1.90;;;;;;;18.62;97.58;100740.34;4941807;28;20219;-76
2023/09/02 01:25:43;;;;;;;2.13;1.30;;;;;;;18.61;97.61;100743.22;4928466;28;20610;-77
2023/09/02 01:28:16;;;;;;;4.47;1.50;;;;;;;18.56;98.13;100748.31;4941361;28;20270;-77
2023/09/02 01:30:49;;;;;;;4.07;1.30;;;;;;;18.60;97.51;100738.88;4942268;29;20208;-76
2023/09/02 01:33:22;;;;;;;5.03;1.50;;;;;;;18.65;97.19;100744.47;4943018;28;20204;-77
2023/09/02 01:35:53;;;;;;;5.10;1.70;;;;;;;18.66;96.74;100746.13;4939714;28;20973;-77
2023/09/02 01:38:24;;;;;;;3.87;1.53;;;;;;;18.63;96.82;100742.00;4939331;28;20282;-77
2023/09/02 01:40:56;;;;;;;4.03;1.70;;;;;;;18.64;96.71;100742.84;4940703;28;20566;-77
2023/09/02 01:43:50;;;;;;;;;;;;;;;;;;;;;
2023/09/02 01:46:22;;;;;;;6.50;1.57;;;;;;;18.64;96.53;100740.16;4936617;28;20223;-78
2023/09/02 01:48:55;;;;;;;3.73;1.50;;;;;;;18.60;96.55;100738.88;4943456;28;20652;-76
2023/09/02 01:51:27;;;;;;;2.67;1.60;;;;;;;18.57;96.67;100741.94;4944983;28;20215;-76
2023/09/02 01:53:55;;;;;;;2.67;1.40;;;;;;;18.59;96.19;100756.00;4944823;28;20200;-77
2023/09/02 01:56:24;;;;;;;7.93;1.70;;;;;;;18.54;96.56;100753.03;4940136;28;20216;-77
2023/09/02 01:58:55;;;;;;;4.50;1.50;;;;;;;18.50;96.65;100752.59;4942104;28;20256;-77
2023/09/02 02:01:23;;;;;;;2.77;1.33;;;;;;;18.52;96.12;100753.22;4939672;29;20207;-77
2023/09/02 02:03:57;;;;;;;1.87;1.20;;;;;;;18.53;96.69;100748.69;4942052;28;20615;-77
2023/09/02 02:06:26;;;;;;;3.17;1.63;;;;;;;18.51;96.25;100745.38;4941406;28;20235;-77
2023/09/02 02:09:00;;;;;;;2.73;1.33;;;;;;;18.53;95.52;100762.13;4942835;28;20311;-77
2023/09/02 02:11:31;;;;;;;3.10;1.60;;;;;;;18.49;95.62;100755.47;4940810;28;20283;-76
2023/09/02 02:14:03;;;;;;;3.87;1.70;;;;;;;18.48;96.21;100762.69;4934967;29;20239;-78
2023/09/02 02:16:31;;;;;;;5.57;1.70;;;;;;;18.48;95.77;100756.47;4941678;28;20227;-77
2023/09/02 02:18:59;;;;;;;5.47;1.83;;;;;;;18.47;95.30;100762.91;4940877;28;20239;-77
2023/09/02 02:21:29;;;;;;;3.87;1.60;;;;;;;18.42;95.67;100764.28;4942625;28;20674;-77
2023/09/02 02:23:57;;;;;;;4.13;1.83;;;;;;;18.40;95.59;100757.44;4942482;28;20215;-76
2023/09/02 02:26:27;;;;;;;3.73;1.90;;;;;;;18.36;96.63;100762.38;4941880;28;20214;-77
2023/09/02 02:28:55;;;;;;;3.80;1.40;;;;;;;18.37;95.69;100761.38;4943011;28;20212;-77
2023/09/02 02:31:25;;;;;;;2.80;1.53;;;;;;;18.35;96.00;100760.72;4943179;28;20244;-77
2023/09/02 02:33:53;;;;;;;2.33;1.27;;;;;;;18.26;95.81;100761.03;4944762;28;20258;-77
2023/09/02 02:36:20;;;;;;;3.83;1.40;;;;;;;18.15;96.83;100765.03;4941481;28;20745;-77
2023/09/02 02:38:48;;;;;;;5.17;1.33;;;;;;;18.08;98.28;100761.47;4941711;28;20240;-77
2023/09/02 02:41:16;;;;;;;6.27;1.60;;;;;;;18.09;97.91;100760.44;4942195;28;20215;-77
2023/09/02 02:43:45;;;;;;;5.73;1.50;;;;;;;18.05;98.48;100770.72;4940172;28;20212;-77
2023/09/02 02:46:12;;;;;;;3.80;1.73;;;;;;;18.05;98.71;100767.19;4942851;28;20212;-77
2023/09/02 02:48:42;;;;;;;3.43;1.67;;;;;;;18.02;98.03;100775.66;4941306;28;20220;-77
2023/09/02 02:51:10;;;;;;;3.67;1.40;;;;;;;17.87;99.78;100758.72;4941057;28;20260;-77
2023/09/02 02:53:38;;;;;;;3.30;1.53;;;;;;;17.87;100.00;100758.72;4940764;28;20218;-77
2023/09/02 02:56:06;;;;;;;3.67;1.60;;;;;;;17.91;99.68;100765.41;4939466;28;20226;-77
2023/09/02 02:58:34;;;;;;;4.73;1.73;;;;;;;17.97;99.15;100761.94;4941861;28;20246;-77
2023/09/02 03:01:02;;;;;;;4.90;1.80;;;;;;;17.98;98.70;100769.81;4940284;28;20584;-77
2023/09/02 03:03:30;;;;;;;4.50;1.53;;;;;;;17.96;98.72;100769.16;4940172;28;20207;-77
2023/09/02 03:06:02;;;;;;;2.93;1.83;;;;;;;17.98;98.47;100767.13;4941285;28;20608;-77
2023/09/02 03:08:30;;;;;;;5.30;1.57;;;;;;;18.05;97.30;100770.72;4944407;28;20204;-77
2023/09/02 03:10:59;;;;;;;4.53;1.43;;;;;;;18.08;95.99;100772.19;4939127;28;20302;-77
2023/09/02 03:13:28;;;;;;;4.37;1.97;;;;;;;18.11;95.78;100779.88;4940931;28;20208;-76
2023/09/02 03:15:57;;;;;;;4.07;1.67;;;;;;;18.07;96.41;100783.94;4943319;28;20291;-77
2023/09/02 03:18:25;;;;;;;3.83;2.00;;;;;;;18.12;95.68;100786.06;4940207;28;20738;-77
2023/09/02 03:20:55;;;;;;;6.53;2.33;;;;;;;18.11;95.75;100784.41;4938587;28;20306;-77
2023/09/02 03:23:24;;;;;;;5.80;1.93;;;;;;;18.12;96.11;100789.56;4939414;28;21124;-77
2023/09/02 03:25:52;;;;;;;4.57;1.70;;;;;;;18.12;95.61;100789.56;4941583;28;20967;-77
2023/09/02 03:28:21;;;;;;;6.07;1.70;;;;;;;18.12;95.65;100780.72;4940414;28;20207;-77
2023/09/02 03:30:49;;;;;;;4.77;2.00;;;;;;;18.11;95.62;100787.94;4938688;28;20670;-77
2023/09/02 03:33:17;;;;;;;4.50;1.90;;;;;;;18.12;94.99;100786.88;4939575;29;20297;-78
2023/09/02 03:35:46;;;;;;;5.57;1.60;;;;;;;18.11;94.04;100790.63;4940080;28;20212;-77
2023/09/02 03:38:14;;;;;;;6.80;2.00;;;;;;;18.12;93.64;100786.06;4939308;28;20748;-77
2023/09/02 03:40:43;;;;;;;8.43;1.87;;;;;;;18.09;93.36;100797.19;4939070;28;20219;-77
2023/09/02 03:43:11;;;;;;;5.27;1.60;;;;;;;18.10;93.03;100793.47;4940263;28;20274;-77
2023/09/02 03:45:39;;;;;;;5.87;1.97;;;;;;;18.06;93.16;100801.06;4941915;28;20331;-77
2023/09/02 03:48:07;;;;;;;5.10;1.50;;;;;;;18.03;92.87;100799.59;4943768;28;20219;-76
2023/09/02 03:51:03;;;;;;;5.50;1.90;;;;;;;18.00;93.31;100799.16;4941560;28;20653;-77
2023/09/02 03:53:32;;;;;;;7.57;1.70;;;;;;;18.01;93.31;100795.44;4941444;28;20208;-77
2023/09/02 03:56:01;;;;;;;5.37;1.50;;;;;;;18.03;93.07;100796.06;4941013;28;20278;-77
2023/09/02 03:58:29;;;;;;;4.77;1.67;;;;;;;18.02;93.60;100805.16;4940812;28;20335;-78
2023/09/02 04:00:57;;;;;;;4.40;1.60;;;;;;;17.97;94.64;100808.41;4939615;29;20830;-77
2023/09/02 04:03:26;;;;;;;2.67;1.13;;;;;;;17.98;94.27;100812.75;4936056;28;20220;-76
2023/09/02 04:05:57;;;;;;;7.43;1.60;;;;;;;18.00;94.54;100820.63;4941311;28;20588;-78
2023/09/02 04:08:26;;;;;;;4.60;1.50;;;;;;;17.99;93.96;100818.94;4940641;28;20283;-77
2023/09/02 04:10:55;;;;;;;1.70;1.20;;;;;;;17.99;93.32;100825.16;4941854;28;20246;-77
2023/09/02 04:13:25;;;;;;;5.33;1.40;;;;;;;17.99;93.33;100813.56;4943434;28;20559;-77
2023/09/02 04:15:54;;;;;;;5.47;1.47;;;;;;;17.99;93.71;100814.41;4941656;28;20592;-76
2023/09/02 04:18:22;;;;;;;3.47;1.40;;;;;;;18.00;92.81;100816.09;4943013;28;20314;-77
2023/09/02 04:20:49;;;;;;;3.00;1.13;;;;;;;17.97;93.13;100815.59;4942078;28;20239;-77
2023/09/02 04:23:23;;;;;;;3.23;1.50;;;;;;;17.99;93.05;100821.63;4939144;28;20215;-78
2023/09/02 04:25:53;;;;;;;3.77;1.40;;;;;;;17.99;93.11;100813.56;4941723;28;20204;-78
2023/09/02 04:28:29;;;;;;;4.37;1.87;;;;;;;17.99;92.76;100813.56;4939936;28;20651;-77
2023/09/02 04:30:58;;;;;;;3.97;1.70;;;;;;;18.02;92.93;100815.91;4946310;28;20214;-77
2023/09/02 04:33:27;;;;;;;6.00;1.97;;;;;;;18.01;93.21;100816.91;4939074;29;20212;-77
2023/09/02 04:35:57;;;;;;;4.33;1.20;;;;;;;18.04;93.02;100821.88;4940836;28;20899;-77
2023/09/02 04:38:26;;;;;;;4.90;1.77;;;;;;;18.03;93.40;100825.59;4942460;28;20203;-77
2023/09/02 04:40:55;;;;;;;2.30;1.50;;;;;;;18.04;93.29;100827.25;4943905;28;20212;-77
2023/09/02 04:43:24;;;;;;;7.70;1.60;;;;;;;18.06;93.58;100825.22;4945604;28;20705;-77
2023/09/02 04:46:01;;;;;;;2.87;1.40;;;;;;;18.03;94.22;100826.41;4942871;29;20212;-76
2023/09/02 04:48:41;;;;;;;4.27;2.00;;;;;;;18.02;94.68;100826.63;4940876;28;20306;-77
2023/09/02 04:51:15;;;;;;;2.60;1.57;;;;;;;18.01;94.69;100830.31;4944042;29;20669;-77
2023/09/02 04:54:02;;;;;;;2.43;1.40;;;;;;;18.00;95.29;100826.81;4943194;28;20215;-77
2023/09/02 04:57:13;;;;;;;7.30;1.53;;;;;;;18.04;94.84;100827.25;4940250;29;20219;-77
2023/09/02 04:59:50;;;;;;;4.67;1.50;;;;;;;18.04;94.46;100827.25;4936388;28;20235;-77
2023/09/02 05:02:19;;;;;;;3.63;1.73;;;;;;;18.05;95.47;100821.69;4943109;28;20211;-76
2023/09/02 05:04:51;;;;;;;2.47;1.40;;;;;;;17.99;97.39;100829.69;4942651;29;20310;-80
2023/09/02 05:07:42;;;;;;;2.57;1.63;;;;;;;17.92;98.34;100828.78;4940997;29;20208;-77
2023/09/02 05:10:50;;;;;;;6.50;2.00;;;;;;;17.87;98.32;100834.69;4890364;28;20590;-76
2023/09/02 05:16:38;;;;;;;6.73;2.10;;;;;;;17.94;97.79;100829.41;4941339;28;20246;-77
2023/09/02 05:22:03;;;;;;;4.47;2.10;;;;;;;18.05;96.56;100834.28;4941123;28;20685;-77
2023/09/02 05:25:02;;;;;;;5.07;2.47;;;;;;;18.09;96.01;100834.75;4920843;29;20319;-77
2023/09/02 05:27:36;;;;;;;5.30;2.93;;;;;;;18.15;95.47;100840.19;4922966;29;20219;-76
2023/09/02 05:37:30;;;;;;;7.83;3.20;;;;;;;18.18;95.77;100844.38;4826755;29;20694;-77
2023/09/02 05:44:35;;;;;;;6.23;3.27;;;;;;;18.24;96.09;100844.44;4844671;29;21458;-76
2023/09/02 05:47:16;;;;;;;14.23;5.93;;;;;;;18.24;95.98;100844.44;4881977;29;20219;-77
2023/09/02 05:50:07;;;;;;;10.13;3.70;;;;;;;18.28;95.47;100844.91;4924066;29;20303;-77
2023/09/02 05:53:00;;;;;;;5.90;3.70;;;;;;;18.29;96.03;100852.75;4923016;29;20220;-77
2023/09/02 05:55:43;;;;;;;6.07;3.90;;;;;;;18.31;95.85;100857.91;4924429;29;20216;-77
2023/09/02 06:02:03;;;;;;;7.23;4.10;;;;;;;18.34;95.38;100855.69;4919738;29;20307;-77
2023/09/02 06:08:58;;;;;;;7.07;4.50;;;;;;;18.39;95.84;100855.13;4827344;29;20830;-76
2023/09/02 06:12:27;;;;;;;8.53;4.23;;;;;;;18.40;95.63;100860.31;4817287;29;20222;-77
2023/09/02 06:18:55;;;;;;;8.13;3.93;;;;;;;18.39;95.28;100853.25;4882376;29;20217;-76
2023/09/02 06:21:30;;;;;;;9.73;4.37;;;;;;;18.45;94.69;100861.59;4924347;29;20802;-78
2023/09/02 06:24:48;;;;;;;9.00;4.30;;;;;;;18.45;94.89;100851.69;4920200;29;20219;-77
2023/09/02 06:27:26;;;;;;;7.03;4.30;;;;;;;18.48;94.81;100861.22;4912778;29;20215;-77
2023/09/02 06:40:17;;;;;;;7.43;4.77;;;;;;;18.57;95.56;100876.22;4893798;29;20350;-77
2023/09/02 06:42:45;;;;;;;8.40;4.70;;;;;;;18.58;95.72;100878.72;4922223;29;20293;-76
2023/09/02 06:45:21;;;;;;;9.47;5.27;;;;;;;18.59;94.97;100882.22;4919568;29;20207;-77
2023/09/02 06:47:50;;;;;;;7.83;5.00;;;;;;;18.62;94.87;100873.81;4922492;29;20217;-77
2023/09/02 06:53:14;;;;;;;7.20;5.07;;;;;;;18.65;96.77;100878.78;4914143;29;20207;-76
2023/09/02 06:55:49;;;;;;;9.27;5.70;;;;;;;18.64;96.79;100879.81;4920793;29;20224;-77
2023/09/02 06:58:17;;;;;;;9.10;5.30;;;;;;;18.68;96.47;100881.09;4920669;29;20622;-77
2023/09/02 07:00:45;;;;;;;6.97;4.73;;;;;;;18.73;97.77;100870.63;4924539;29;20256;-78
2023/09/02 07:03:16;;;;;;;9.20;5.43;;;;;;;18.78;97.80;100873.56;4922816;29;20207;-76
2023/09/02 07:05:46;;;;;;;6.13;4.67;;;;;;;18.80;97.61;100874.19;4929247;29;20718;-77
2023/09/02 07:08:14;;;;;;;6.43;4.93;;;;;;;18.86;96.52;100881.47;4925633;29;20227;-77
2023/09/02 07:10:42;;;;;;;8.10;5.10;;;;;;;18.96;96.64;100887.38;4924777;29;20213;-77
2023/09/02 07:13:11;;;;;;;15.23;6.23;;;;;;;19.01;96.22;100887.59;4923295;29;20276;-77
2023/09/02 07:15:39;;;;;;;10.03;6.83;;;;;;;19.07;94.83;100900.28;4924299;29;20219;-77
2023/09/02 07:18:07;;;;;;;12.00;6.23;;;;;;;19.10;94.52;100907.97;4922132;29;20290;-77
2023/09/02 07:20:37;;;;;;;18.67;6.67;;;;;;;19.14;95.61;100913.78;4910338;29;20237;-77
2023/09/02 07:23:05;;;;;;;8.77;5.27;;;;;;;19.15;95.43;100921.66;4919746;29;20227;-77
2023/09/02 07:25:33;;;;;;;9.83;5.80;;;;;;;19.23;94.46;100919.88;4922910;29;20212;-77
2023/09/02 07:28:01;;;;;;;7.73;5.33;;;;;;;19.27;94.05;100927.34;4920041;29;20215;-77
2023/09/02 07:30:30;;;;;;;12.13;6.03;;;;;;;19.33;93.94;100933.81;4921929;29;20310;-69
2023/09/02 07:32:59;;;;;;;10.90;6.13;;;;;;;19.36;94.02;100936.09;4918597;29;20220;-70
2023/09/02 07:35:27;;;;;;;9.10;5.73;;;;;;;19.43;94.55;100934.31;4919494;29;20262;-71
2023/09/02 07:37:55;;;;;;;12.57;5.93;;;;;;;19.53;94.45;100932.13;4916148;29;20217;-72
2023/09/02 07:40:23;;;;;;;7.30;5.17;;;;;;;19.60;92.88;100937.59;4919521;29;20236;-72
2023/09/02 07:42:50;;;;;;;6.97;4.93;;;;;;;19.63;92.79;100942.56;4920840;29;20327;-71
2023/09/02 07:45:18;;;;;;;7.63;5.17;;;;;;;19.70;92.37;100933.50;4916958;29;20209;-72
2023/09/02 07:47:47;;;;;;;7.57;5.27;;;;;;;19.79;91.78;100921.56;4917048;29;20299;-67
2023/09/02 07:50:15;;;;;;;10.83;4.97;;;;;;;19.88;92.73;100925.75;4917636;29;20272;-71
2023/09/02 07:52:43;;;;;;;7.83;5.37;;;;;;;19.95;91.82;100931.19;4918650;29;20219;-71
2023/09/02 07:55:10;;;;;;;7.67;4.97;;;;;;;20.00;93.04;100930.59;4915734;29;20307;-72
2023/09/02 07:57:44;;;;;;;5.77;4.23;;;;;;;20.06;91.04;100932.47;4916359;29;20286;-73
2023/09/02 08:00:12;;;;;;;5.87;4.17;;;;;;;20.16;90.53;100932.94;4917350;29;20232;-73
2023/09/02 08:02:40;;;;;;;6.30;4.57;;;;;;;20.25;91.04;100934.44;4918267;29;20211;-72
2023/09/02 08:05:10;;;;;;;6.53;4.77;;;;;;;20.30;90.69;100932.00;4917847;29;21512;-71
2023/09/02 08:07:38;;;;;;;8.23;4.57;;;;;;;20.41;90.32;100928.75;4920342;29;20216;-70
2023/09/02 08:10:07;;;;;;;6.90;4.67;;;;;;;20.52;85.76;100933.56;4921278;29;20208;-71
2023/09/02 08:12:35;;;;;;;9.40;4.30;;;;;;;20.67;84.67;100933.38;4921709;29;20212;-72
2023/09/02 08:15:03;;;;;;;5.00;3.23;;;;;;;20.81;85.71;100937.81;4920003;29;21083;-73
2023/09/02 08:17:30;;;;;;;5.00;3.10;;;;;;;20.92;85.22;100936.38;4921324;29;20295;-70
2023/09/02 08:19:58;;;;;;;7.80;3.37;;;;;;;21.02;84.24;100940.31;4919016;29;20287;-72
2023/09/02 08:22:27;;;;;;;6.60;3.20;;;;;;;21.13;84.66;100940.75;4921968;29;20220;-72
2023/09/02 08:24:56;;;;;;;5.37;3.23;;;;;;;21.30;85.99;100947.44;4918781;29;20211;-69
2023/09/02 08:27:25;;;;;;;4.20;3.20;;;;;;;21.43;86.43;100941.22;4921168;29;20599;-73
2023/09/02 08:29:53;;;;;;;4.27;2.93;;;;;;;21.55;85.35;100934.19;4921186;29;20698;-73
2023/09/02 08:32:21;;;;;;;10.83;5.50;;;;;;;21.69;84.93;100947.44;4921350;29;20267;-74
2023/09/02 08:34:49;;;;;;;4.43;3.03;;;;;;;21.83;82.91;100948.25;4922624;29;20295;-72
2023/09/02 08:37:17;;;;;;;6.53;4.07;;;;;;;21.99;81.78;100952.38;4922028;29;20250;-71
2023/09/02 08:39:47;;;;;;;7.50;4.07;;;;;;;22.12;80.89;100955.06;4921831;29;20216;-74
2023/09/02 08:42:17;;;;;;;5.87;3.10;;;;;;;22.28;80.01;100956.47;4921946;29;20251;-70
2023/09/02 08:45:00;;;;;;;6.27;3.10;;;;;;;22.43;79.75;100954.34;4925195;29;20625;-74
2023/09/02 08:47:31;;;;;;;5.55;3.08;;;;;;;22.57;80.36;100955.97;4921395;29;20205;-73
2023/09/02 08:50:00;;;;;;;6.80;2.92;;;;;;;22.69;78.57;100954.22;4922130;29;20433;-70
2023/09/02 08:52:33;;;;;;;9.80;5.35;;;;;;;22.81;77.55;100955.22;4923709;29;20219;-71
2023/09/02 08:55:03;;;;;;;8.40;3.83;;;;;;;22.93;77.85;100955.38;4920749;29;20272;-73
2023/09/02 08:57:33;;;;;;;5.72;2.80;;;;;;;23.11;77.98;100951.94;4920174;29;20208;-72
2023/09/02 09:00:01;;;;;;;7.25;4.72;;;;;;;23.29;77.51;100951.19;4920974;29;20275;-75
2023/09/02 09:02:30;;;;;;;6.47;3.63;;;;;;;23.45;76.41;100962.28;4922409;29;20243;-73
2023/09/02 09:05:01;;;;;;;6.63;3.72;;;;;;;23.58;74.98;100958.66;4923305;29;20225;-73
2023/09/02 09:07:33;;;;;;;7.45;3.53;;;;;;;23.72;72.85;100964.81;4920410;29;20212;-74
2023/09/02 09:10:09;;;;;;;9.82;2.88;;;;;;;23.85;71.33;100964.66;4920801;29;20208;-70
2023/09/02 09:12:37;;;;;;;4.45;2.45;;;;;;;24.03;69.89;100961.97;4921784;29;20216;-73
2023/09/02 09:15:14;;;;;;;8.05;2.75;;;;;;;24.22;68.87;100960.16;4922123;29;20215;-73
2023/09/02 09:17:43;;;;;;;6.03;3.13;;;;;;;24.45;68.66;100960.28;4921493;29;20264;-73
2023/09/02 09:20:12;;;;;;;5.57;3.03;;;;;;;24.72;68.31;100960.75;4920067;29;20213;-75
2023/09/02 09:22:41;;;;;;;4.63;3.03;;;;;;;24.75;67.44;100968.44;4920578;29;20244;-72
2023/09/02 09:25:20;;;;;;;6.10;3.50;;;;;;;24.68;67.51;100970.44;4920136;29;20216;-73
2023/09/02 09:27:51;;;;;;;4.97;3.03;;;;;;;24.66;67.54;100962.53;4918355;28;20224;-72
2023/09/02 09:30:34;;;;;;;3.70;3.00;;;;;;;24.77;66.24;100970.94;4921632;29;20224;-71
2023/09/02 09:33:05;;;;;;;8.25;3.60;;;;;;;24.94;65.29;100974.69;4921237;29;20265;-73
2023/09/02 09:35:34;;;;;;;7.20;3.15;;;;;;;25.01;65.91;100973.53;4923114;29;20208;-72
2023/09/02 09:38:03;;;;;;;9.13;3.85;;;;;;;24.91;65.47;100972.41;4922416;29;20850;-72
2023/09/02 09:40:33;;;;;;;6.57;3.25;;;;;;;24.76;66.03;100961.97;4921235;29;20216;-72
2023/09/02 09:43:06;;;;;;;5.95;3.28;;;;;;;24.47;67.23;100968.19;4922075;29;20988;-71
2023/09/02 09:45:49;;;;;;;6.72;3.47;;;;;;;24.06;68.29;100974.25;4918963;29;20201;-74
2023/09/02 09:48:17;;;;;;;3.90;3.03;;;;;;;23.79;70.80;100965.56;4917919;29;20208;-73
2023/09/02 09:50:45;;;;;;;5.78;2.90;;;;;;;23.55;71.70;100959.97;4923649;29;20410;-67
2023/09/02 09:53:13;;;;;;;9.40;5.18;;;;;;;23.52;71.74;100965.81;4920002;29;20220;-72
2023/09/02 09:55:45;;;;;;;12.50;5.70;;;;;;;24.65;69.15;100963.56;4921624;29;20216;-73
2023/09/02 09:58:22;;;;;;;8.60;4.22;;;;;;;26.79;59.62;100958.66;4919977;29;20215;-73
2023/09/02 10:00:52;;;;;;;5.57;3.13;;;;;;;26.63;58.45;100967.59;4918156;29;20204;-72
2023/09/02 10:03:29;;;;;;;8.18;3.42;;;;;;;26.07;59.89;100963.66;4920727;29;20201;-71
2023/09/02 10:06:03;;;;;;;3.92;2.78;;;;;;;25.52;61.64;100977.53;4922079;29;20896;-71
2023/09/02 10:08:50;;;;;;;3.88;2.70;;;;;;;25.07;63.62;100969.06;4919279;29;20216;-74
2023/09/02 10:11:24;;;;;;;7.38;4.97;;;;;;;24.66;65.88;100964.41;4917845;29;20223;-72
2023/09/02 10:13:57;;;;;;;4.90;3.35;;;;;;;24.29;67.34;100959.00;4918526;29;20209;-71
2023/09/02 10:16:26;;;;;;;7.00;2.97;;;;;;;24.02;68.92;100971.16;4923443;29;20209;-73
2023/09/02 10:18:54;;;;;;;3.88;2.63;;;;;;;24.09;69.17;100971.94;4919514;29;20696;-71
2023/09/02 10:21:28;;;;;;;5.35;2.90;;;;;;;23.97;68.97;100973.72;4920382;29;20235;-72
2023/09/02 10:23:59;;;;;;;2.85;2.08;;;;;;;24.45;68.45;100976.53;4918414;29;20212;-74
2023/09/02 10:26:45;;;;;;;5.05;1.80;;;;;;;27.80;55.74;100965.88;4921275;29;20213;-73
2023/09/02 10:29:16;;;;;;;3.67;2.10;;;;;;;27.55;54.70;100960.03;4912228;29;20215;-71
2023/09/02 10:31:48;;;;;;;3.83;2.58;;;;;;;26.40;57.58;100957.59;4919973;29;20223;-73
2023/09/02 10:34:29;;;;;;;4.22;2.08;;;;;;;25.42;62.35;100966.44;4919374;29;20546;-75
2023/09/02 10:37:00;;;;;;;2.65;1.63;;;;;;;24.67;65.38;100957.91;4919438;29;20208;-74
2023/09/02 10:39:42;;;;;;;4.00;2.40;;;;;;;24.20;67.55;100952.22;4921086;29;20211;-72
2023/09/02 10:42:15;;;;;;;5.05;3.05;;;;;;;23.81;69.60;100958.88;4921249;29;21191;-72
2023/09/02 10:44:44;;;;;;;4.57;2.80;;;;;;;23.54;71.54;100958.28;4918052;29;20212;-70
2023/09/02 10:47:12;;;;;;;3.13;2.10;;;;;;;23.39;73.68;100965.06;4915944;29;20208;-73
2023/09/02 10:49:41;;;;;;;3.83;2.10;;;;;;;23.26;74.97;100955.97;4920510;29;20216;-71
2023/09/02 10:52:10;;;;;;;2.42;1.70;;;;;;;23.19;75.09;100959.78;4921007;29;20223;-74
2023/09/02 10:55:03;;;;;;;3.83;2.00;;;;;;;23.11;75.86;100960.06;4919869;29;20287;-72
2023/09/02 10:57:44;;;;;;;2.90;2.00;;;;;;;23.07;75.45;100961.53;4918967;29;20212;-70
2023/09/02 11:00:16;;;;;;;6.97;2.17;;;;;;;23.01;73.92;100957.00;4918798;29;20217;-68
2023/09/02 11:02:45;;;;;;;5.65;1.67;;;;;;;22.99;74.63;100959.09;4920573;29;20935;-73
2023/09/02 11:05:14;;;;;;;2.65;1.55;;;;;;;23.01;75.49;100957.00;4917036;29;20306;-74
2023/09/02 11:07:42;;;;;;;4.88;1.70;;;;;;;23.05;75.69;100956.31;4919741;29;20227;-73
2023/09/02 11:10:11;;;;;;;2.97;1.33;;;;;;;23.10;75.15;100950.28;4919695;29;20618;-73
2023/09/02 11:13:07;;;;;;;7.75;6.70;;;;;;;23.10;74.83;100952.97;4919523;29;20626;-73
2023/09/02 11:16:07;;;;;;;9.73;7.45;;;;;;;23.10;74.95;100951.09;4894705;29;20230;-71
2023/09/02 11:18:40;;;;;;;5.07;2.50;;;;;;;23.07;74.45;100953.41;4914387;29;20264;-73
2023/09/02 11:21:08;;;;;;;3.00;2.08;;;;;;;23.08;74.37;100946.97;4918247;29;20783;-73
2023/09/02 11:23:36;;;;;;;4.72;1.60;;;;;;;23.13;74.31;100950.66;4917684;29;20252;-74
2023/09/02 11:26:05;;;;;;;5.63;2.42;;;;;;;23.46;74.13;100961.25;4918969;29;20682;-74
2023/09/02 11:28:35;;;;;;;4.28;1.90;;;;;;;26.08;64.16;100944.41;4918037;29;20223;-73
2023/09/02 11:31:09;;;;;;;5.80;2.00;;;;;;;28.96;52.42;100942.00;4915264;29;20220;-71
2023/09/02 11:33:39;;;;;;;3.75;1.58;;;;;;;30.53;47.78;100945.03;4918814;29;20697;-73
2023/09/02 11:36:12;;;;;;;5.50;1.70;;;;;;;31.50;45.55;100945.97;4919658;29;20291;-73
2023/09/02 11:38:39;;;;;;;2.85;1.48;;;;;;;32.42;43.50;100942.78;4920007;29;20216;-72
2023/09/02 11:41:08;;;;;;;2.97;1.20;;;;;;;32.14;43.25;100940.66;4918611;29;20212;-72
2023/09/02 11:43:38;;;;;;;1.88;1.17;;;;;;;32.12;43.29;100940.13;4917397;29;20236;-75
2023/09/02 11:46:09;;;;;;;4.22;1.13;;;;;;;31.87;43.52;100942.94;4919874;29;20223;-73
2023/09/02 11:48:37;;;;;;;2.65;1.05;;;;;;;31.05;44.91;100939.38;4920453;29;20296;-71
2023/09/02 11:51:05;;;;;;;1.20;0.80;;;;;;;30.30;46.03;100944.38;4917831;29;20213;-73
2023/09/02 11:53:33;;;;;;;1.55;0.60;;;;;;;29.29;47.86;100949.13;4917217;29;21112;-73
2023/09/02 11:56:01;;;;;;;1.67;0.85;;;;;;;28.76;49.16;100956.25;4916227;29;20844;-71
2023/09/02 11:58:29;;;;;;;1.77;0.75;;;;;;;28.60;49.57;100954.41;4916075;29;20208;-73
2023/09/02 12:01:01;;;;;;;3.22;0.77;;;;;;;28.48;50.42;100953.75;4917988;29;20209;-74
2023/09/02 12:03:31;;;;;;;1.52;0.90;;;;;;;28.65;49.74;100956.41;4922069;29;20228;-74
2023/09/02 12:06:02;;;;;;;3.00;0.82;;;;;;;29.06;49.23;100954.94;4920279;29;20220;-74
2023/09/02 12:08:39;;;;;;;2.95;1.00;;;;;;;28.38;51.01;100954.44;4917590;29;20212;-72
2023/09/02 12:11:10;;;;;;;4.18;1.08;;;;;;;27.84;52.67;100958.84;4892307;29;20244;-75
2023/09/02 12:13:38;;;;;;;3.80;0.93;;;;;;;28.93;51.30;100949.91;4919425;29;20359;-73
2023/09/02 12:16:16;;;;;;;1.45;0.88;;;;;;;30.51;45.52;100956.25;4919323;29;20217;-73
2023/09/02 12:18:48;;;;;;;2.53;1.23;;;;;;;29.71;47.19;100962.06;4917618;29;20598;-73
2023/09/02 12:21:18;;;;;;;3.63;1.40;;;;;;;28.94;50.00;100954.28;4920120;29;20209;-73
2023/09/02 12:23:48;;;;;;;2.47;1.25;;;;;;;28.04;51.93;100964.59;4916734;29;20217;-72
2023/09/02 12:26:17;;;;;;;2.47;1.00;;;;;;;27.44;53.75;100963.66;4918130;29;20205;-75
2023/09/02 12:28:49;;;;;;;4.53;1.20;;;;;;;26.94;54.52;100965.22;4917304;29;20205;-72
2023/09/02 12:31:20;;;;;;;2.30;0.88;;;;;;;26.66;55.11;100967.09;4918851;29;20217;-70
2023/09/02 12:33:50;;;;;;;1.98;1.05;;;;;;;26.34;55.82;100964.00;4917024;29;20243;-74
2023/09/02 12:36:18;;;;;;;1.30;0.70;;;;;;;25.91;57.09;100965.22;4919875;29;20216;-75
2023/09/02 12:38:50;;;;;;;2.80;1.10;;;;;;;25.69;59.20;100973.09;4920339;29;20205;-74
2023/09/02 12:41:18;;;;;;;2.55;0.85;;;;;;;26.17;58.83;100972.03;4918861;29;20252;-72
2023/09/02 12:43:46;;;;;;;2.08;1.42;;;;;;;26.39;58.02;100972.25;4919177;29;20239;-74
2023/09/02 12:46:21;;;;;;;3.05;1.10;;;;;;;26.28;57.69;100963.06;4916974;29;20268;-72
2023/09/02 12:48:49;;;;;;;1.73;0.95;;;;;;;26.10;58.44;100968.63;4917780;29;20216;-74
2023/09/02 12:51:27;;;;;;;2.03;0.90;;;;;;;25.85;59.72;100964.28;4921488;29;21134;-70